createdAt,value
2022-09-26T00:08:18.139Z,1.80
2022-09-26T00:18:20.995Z,2.00
2022-09-26T00:28:25.432Z,2.10
2022-09-26T00:38:28.240Z,1.83
2022-09-26T00:48:35.251Z,1.88
2022-09-26T00:58:45.974Z,1.85
2022-09-26T01:08:54.606Z,2.05
2022-09-26T01:18:57.305Z,2.20
2022-09-26T01:29:24.137Z,2.22
2022-09-26T01:39:47.665Z,1.92
2022-09-26T01:49:58.657Z,2.10
2022-09-26T02:00:06.559Z,2.10
2022-09-26T02:10:14.563Z,1.63
2022-09-26T02:20:25.419Z,1.50
2022-09-26T02:30:28.613Z,2.17
2022-09-26T02:40:40.420Z,1.70
2022-09-26T02:50:56.217Z,2.05
2022-09-26T03:01:06.905Z,1.58
2022-09-26T03:11:12.378Z,1.38
2022-09-26T03:21:16.595Z,1.55
2022-09-26T03:31:21.800Z,1.90
2022-09-26T03:41:25.875Z,2.00
2022-09-26T03:51:28.604Z,1.92
2022-09-26T04:01:32.693Z,1.98
2022-09-26T04:11:35.381Z,2.78
2022-09-26T04:21:40.597Z,2.75
2022-09-26T04:31:43.495Z,2.50
2022-09-26T04:41:47.623Z,2.90
2022-09-26T04:51:50.250Z,3.88
2022-09-26T05:01:54.883Z,3.42
2022-09-26T05:11:57.615Z,4.47
2022-09-26T05:22:03.525Z,4.63
2022-09-26T05:32:06.378Z,4.00
2022-09-26T05:42:10.445Z,5.07
2022-09-26T05:52:13.068Z,4.68
2022-09-26T06:02:20.732Z,5.20
2022-09-26T06:12:25.319Z,5.43
2022-09-26T06:22:29.469Z,4.55
2022-09-26T06:32:32.117Z,5.03
2022-09-26T06:42:37.939Z,5.10
2022-09-26T06:52:40.928Z,4.47
2022-09-26T07:02:52.011Z,4.47
2022-09-26T07:13:02.894Z,4.07
2022-09-26T07:23:09.372Z,4.30
2022-09-26T07:33:12.500Z,4.00
2022-09-26T07:43:22.347Z,3.30
2022-09-26T07:53:29.645Z,3.20
2022-09-26T08:03:33.694Z,3.47
2022-09-26T08:13:36.672Z,3.08
2022-09-26T08:23:40.879Z,3.05
2022-09-26T08:33:44.120Z,3.42
2022-09-26T08:43:58.456Z,2.58
2022-09-26T08:54:07.404Z,3.08
2022-09-26T09:04:16.649Z,2.75
2022-09-26T09:14:41.971Z,2.55
2022-09-26T09:24:55.912Z,2.65
2022-09-26T09:34:58.965Z,2.97
2022-09-26T09:45:06.569Z,1.92
2022-09-26T09:55:21.023Z,2.28
2022-09-26T10:05:36.123Z,2.30
2022-09-26T10:15:45.538Z,2.17
2022-09-26T10:25:53.240Z,2.90
2022-09-26T10:36:04.944Z,2.50
2022-09-26T10:46:11.773Z,2.83
2022-09-26T10:56:23.065Z,3.10
2022-09-26T11:06:30.264Z,2.92
2022-09-26T11:16:52.001Z,2.88
2022-09-26T11:27:05.885Z,2.70
2022-09-26T11:37:20.413Z,3.10
2022-09-26T11:47:51.914Z,3.67
2022-09-26T11:58:03.590Z,3.42
2022-09-26T12:08:21.542Z,3.45
2022-09-26T12:18:32.740Z,3.42
2022-09-26T12:28:58.417Z,3.97
2022-09-26T12:39:21.958Z,3.80
2022-09-26T12:49:39.728Z,4.13
2022-09-26T13:00:12.763Z,4.35
2022-09-26T13:10:33.404Z,4.57
2022-09-26T13:20:41.217Z,4.65
2022-09-26T13:30:49.975Z,4.60
2022-09-26T13:41:01.570Z,4.47
2022-09-26T13:51:18.302Z,4.20
2022-09-26T14:01:28.029Z,4.65
2022-09-26T14:11:49.049Z,3.63
2022-09-26T14:22:03.463Z,3.40
2022-09-26T14:32:17.429Z,2.70
2022-09-26T14:42:24.825Z,3.05
2022-09-26T14:52:29.408Z,3.72
2022-09-26T15:02:39.391Z,2.83
2022-09-26T15:12:48.310Z,2.10
2022-09-26T15:22:52.736Z,1.90
2022-09-26T15:32:59.522Z,1.45
2022-09-26T15:43:06.034Z,2.03
2022-09-26T15:53:21.684Z,2.50
2022-09-26T16:03:40.760Z,2.00
2022-09-26T16:13:50.361Z,2.45
2022-09-26T16:23:54.936Z,4.53
2022-09-26T16:34:01.037Z,2.92
2022-09-26T16:44:08.657Z,2.90
2022-09-26T16:54:19.333Z,2.90
2022-09-26T17:04:26.326Z,3.28
2022-09-26T17:14:40.210Z,2.35
2022-09-26T17:24:44.085Z,2.30
2022-09-26T17:34:51.623Z,2.78
2022-09-26T17:44:54.453Z,2.75
2022-09-26T17:55:01.302Z,4.55
2022-09-26T18:05:09.145Z,3.30
2022-09-26T18:15:16.403Z,4.90
2022-09-26T18:25:22.321Z,3.92
2022-09-26T18:35:27.790Z,4.18
2022-09-26T18:45:36.369Z,4.80
2022-09-26T18:55:57.895Z,5.50
2022-09-26T19:06:04.211Z,5.38
2022-09-26T19:16:09.053Z,5.25
2022-09-26T19:26:23.146Z,5.85
2022-09-26T19:36:27.267Z,5.60
2022-09-26T19:46:30.427Z,5.82
2022-09-26T19:56:35.252Z,7.15
2022-09-26T20:06:38.026Z,6.40
2022-09-26T20:16:43.897Z,6.63
2022-09-26T20:26:47.863Z,7.53
2022-09-26T20:36:52.820Z,6.95
2022-09-26T20:46:59.151Z,7.88
2022-09-26T20:57:03.204Z,7.68
2022-09-26T21:07:05.939Z,7.57
2022-09-26T21:17:17.986Z,6.75
2022-09-26T21:27:20.979Z,6.68
2022-09-26T21:37:25.100Z,5.82
2022-09-26T21:47:28.150Z,4.57
2022-09-26T21:57:35.274Z,3.40
2022-09-26T22:07:38.246Z,2.40
2022-09-26T22:17:42.834Z,2.08
2022-09-26T22:27:45.591Z,2.72
2022-09-26T22:37:50.644Z,2.47
2022-09-26T22:47:53.362Z,2.03
2022-09-26T22:57:57.455Z,1.48
2022-09-26T23:08:00.186Z,0.95
2022-09-26T23:18:04.292Z,1.42
2022-09-26T23:28:07.022Z,1.67
2022-09-26T23:38:11.125Z,1.63
2022-09-26T23:48:13.839Z,2.40
2022-09-26T23:58:17.909Z,1.88
